sensor_id;sensor_type;location;lat;lon;timestamp;P1;durP1;ratioP1;P2;durP2;ratioP2
51451;SDS011;37521;52.020;-1.740;2023-12-07T00:01:55;3.65;;;2.55;;
51451;SDS011;37521;52.020;-1.740;2023-12-07T00:04:25;4.60;;;2.90;;
51451;SDS011;37521;52.020;-1.740;2023-12-07T00:06:54;5.20;;;3.03;;
51451;SDS011;37521;52.020;-1.740;2023-12-07T00:09:23;5.63;;;2.53;;
51451;SDS011;37521;52.020;-1.740;2023-12-07T00:11:52;7.20;;;3.38;;
51451;SDS011;37521;52.020;-1.740;2023-12-07T00:14:20;14.60;;;2.70;;
51451;SDS011;37521;52.020;-1.740;2023-12-07T00:16:49;6.40;;;3.08;;
51451;SDS011;37521;52.020;-1.740;2023-12-07T00:19:17;3.22;;;2.45;;
51451;SDS011;37521;52.020;-1.740;2023-12-07T00:21:47;6.88;;;2.65;;
51451;SDS011;37521;52.020;-1.740;2023-12-07T00:24:15;6.45;;;3.00;;
51451;SDS011;37521;52.020;-1.740;2023-12-07T00:26:44;4.43;;;3.40;;
51451;SDS011;37521;52.020;-1.740;2023-12-07T00:29:13;3.72;;;2.90;;
51451;SDS011;37521;52.020;-1.740;2023-12-07T00:31:41;4.88;;;2.75;;
51451;SDS011;37521;52.020;-1.740;2023-12-07T00:34:11;6.63;;;3.08;;
51451;SDS011;37521;52.020;-1.740;2023-12-07T00:36:39;4.07;;;2.85;;
51451;SDS011;37521;52.020;-1.740;2023-12-07T00:39:10;4.25;;;2.38;;
51451;SDS011;37521;52.020;-1.740;2023-12-07T00:41:39;4.10;;;2.60;;
51451;SDS011;37521;52.020;-1.740;2023-12-07T00:44:07;4.40;;;2.85;;
51451;SDS011;37521;52.020;-1.740;2023-12-07T00:46:36;4.18;;;2.78;;
51451;SDS011;37521;52.020;-1.740;2023-12-07T00:49:05;5.03;;;3.22;;
51451;SDS011;37521;52.020;-1.740;2023-12-07T00:51:34;7.43;;;2.90;;
51451;SDS011;37521;52.020;-1.740;2023-12-07T00:54:02;7.22;;;3.22;;
51451;SDS011;37521;52.020;-1.740;2023-12-07T00:56:32;2.88;;;2.53;;
51451;SDS011;37521;52.020;-1.740;2023-12-07T00:59:02;4.72;;;3.40;;
51451;SDS011;37521;52.020;-1.740;2023-12-07T01:01:30;4.80;;;3.10;;
51451;SDS011;37521;52.020;-1.740;2023-12-07T01:03:59;7.15;;;3.30;;
51451;SDS011;37521;52.020;-1.740;2023-12-07T01:06:28;6.05;;;2.67;;
51451;SDS011;37521;52.020;-1.740;2023-12-07T01:08:57;5.18;;;2.90;;
51451;SDS011;37521;52.020;-1.740;2023-12-07T01:11:26;7.32;;;3.03;;
51451;SDS011;37521;52.020;-1.740;2023-12-07T01:13:56;5.00;;;2.92;;
51451;SDS011;37521;52.020;-1.740;2023-12-07T01:16:24;5.95;;;3.22;;
51451;SDS011;37521;52.020;-1.740;2023-12-07T01:18:53;3.97;;;2.78;;
51451;SDS011;37521;52.020;-1.740;2023-12-07T01:21:22;4.70;;;2.88;;
51451;SDS011;37521;52.020;-1.740;2023-12-07T01:23:51;6.05;;;2.63;;
51451;SDS011;37521;52.020;-1.740;2023-12-07T01:26:35;3.90;;;2.80;;
51451;SDS011;37521;52.020;-1.740;2023-12-07T01:29:05;4.93;;;2.85;;
51451;SDS011;37521;52.020;-1.740;2023-12-07T01:31:34;5.18;;;2.80;;
51451;SDS011;37521;52.020;-1.740;2023-12-07T01:34:03;5.93;;;2.83;;
51451;SDS011;37521;52.020;-1.740;2023-12-07T01:36:32;3.47;;;2.38;;
51451;SDS011;37521;52.020;-1.740;2023-12-07T01:39:00;4.72;;;2.88;;
51451;SDS011;37521;52.020;-1.740;2023-12-07T01:41:29;4.93;;;2.65;;
51451;SDS011;37521;52.020;-1.740;2023-12-07T01:43:58;3.05;;;2.63;;
51451;SDS011;37521;52.020;-1.740;2023-12-07T01:46:28;6.03;;;2.00;;
51451;SDS011;37521;52.020;-1.740;2023-12-07T01:48:57;4.53;;;2.17;;
51451;SDS011;37521;52.020;-1.740;2023-12-07T01:51:26;2.42;;;2.08;;
51451;SDS011;37521;52.020;-1.740;2023-12-07T01:53:56;5.30;;;2.40;;
51451;SDS011;37521;52.020;-1.740;2023-12-07T01:56:25;3.88;;;2.50;;
51451;SDS011;37521;52.020;-1.740;2023-12-07T01:58:54;3.53;;;2.20;;
51451;SDS011;37521;52.020;-1.740;2023-12-07T02:01:22;4.28;;;2.75;;
51451;SDS011;37521;52.020;-1.740;2023-12-07T02:03:53;6.35;;;2.42;;
51451;SDS011;37521;52.020;-1.740;2023-12-07T02:06:22;3.55;;;2.45;;
51451;SDS011;37521;52.020;-1.740;2023-12-07T02:08:50;4.47;;;2.78;;
51451;SDS011;37521;52.020;-1.740;2023-12-07T02:11:19;3.45;;;2.47;;
51451;SDS011;37521;52.020;-1.740;2023-12-07T02:13:48;3.13;;;2.35;;
51451;SDS011;37521;52.020;-1.740;2023-12-07T02:16:19;2.92;;;2.10;;
51451;SDS011;37521;52.020;-1.740;2023-12-07T02:18:56;2.65;;;1.48;;
51451;SDS011;37521;52.020;-1.740;2023-12-07T02:21:38;3.10;;;1.90;;
51451;SDS011;37521;52.020;-1.740;2023-12-07T02:24:12;5.05;;;1.67;;
51451;SDS011;37521;52.020;-1.740;2023-12-07T02:26:50;4.35;;;2.67;;
51451;SDS011;37521;52.020;-1.740;2023-12-07T02:29:19;4.18;;;2.42;;
51451;SDS011;37521;52.020;-1.740;2023-12-07T02:31:47;5.80;;;2.65;;
51451;SDS011;37521;52.020;-1.740;2023-12-07T02:34:16;5.05;;;2.00;;
51451;SDS011;37521;52.020;-1.740;2023-12-07T02:36:46;2.22;;;1.60;;
51451;SDS011;37521;52.020;-1.740;2023-12-07T02:39:18;3.85;;;2.55;;
51451;SDS011;37521;52.020;-1.740;2023-12-07T02:41:47;4.57;;;2.30;;
51451;SDS011;37521;52.020;-1.740;2023-12-07T02:44:20;2.13;;;1.87;;
51451;SDS011;37521;52.020;-1.740;2023-12-07T02:46:49;7.25;;;2.70;;
51451;SDS011;37521;52.020;-1.740;2023-12-07T02:49:18;2.47;;;2.08;;
51451;SDS011;37521;52.020;-1.740;2023-12-07T02:51:47;2.15;;;1.67;;
51451;SDS011;37521;52.020;-1.740;2023-12-07T02:54:15;7.53;;;2.42;;
51451;SDS011;37521;52.020;-1.740;2023-12-07T02:56:44;8.98;;;2.40;;
51451;SDS011;37521;52.020;-1.740;2023-12-07T02:59:14;2.45;;;1.70;;
51451;SDS011;37521;52.020;-1.740;2023-12-07T03:01:43;2.92;;;2.58;;
51451;SDS011;37521;52.020;-1.740;2023-12-07T03:04:11;5.13;;;2.65;;
51451;SDS011;37521;52.020;-1.740;2023-12-07T03:06:40;3.60;;;2.65;;
51451;SDS011;37521;52.020;-1.740;2023-12-07T03:09:09;1.58;;;1.48;;
51451;SDS011;37521;52.020;-1.740;2023-12-07T03:11:38;3.35;;;1.70;;
51451;SDS011;37521;52.020;-1.740;2023-12-07T03:14:07;3.75;;;2.60;;
51451;SDS011;37521;52.020;-1.740;2023-12-07T03:16:37;2.50;;;2.05;;
51451;SDS011;37521;52.020;-1.740;2023-12-07T03:19:07;4.57;;;2.78;;
51451;SDS011;37521;52.020;-1.740;2023-12-07T03:21:38;4.82;;;2.80;;
51451;SDS011;37521;52.020;-1.740;2023-12-07T03:24:07;3.28;;;2.42;;
51451;SDS011;37521;52.020;-1.740;2023-12-07T03:26:36;3.55;;;2.42;;
51451;SDS011;37521;52.020;-1.740;2023-12-07T03:29:05;5.20;;;2.08;;
51451;SDS011;37521;52.020;-1.740;2023-12-07T03:31:34;5.88;;;2.88;;
51451;SDS011;37521;52.020;-1.740;2023-12-07T03:34:04;3.15;;;2.10;;
51451;SDS011;37521;52.020;-1.740;2023-12-07T03:36:33;3.15;;;2.50;;
51451;SDS011;37521;52.020;-1.740;2023-12-07T03:39:02;3.97;;;2.00;;
51451;SDS011;37521;52.020;-1.740;2023-12-07T03:41:31;2.78;;;1.77;;
51451;SDS011;37521;52.020;-1.740;2023-12-07T03:44:00;4.57;;;2.67;;
51451;SDS011;37521;52.020;-1.740;2023-12-07T03:46:29;3.95;;;2.92;;
51451;SDS011;37521;52.020;-1.740;2023-12-07T03:48:57;3.95;;;2.10;;
51451;SDS011;37521;52.020;-1.740;2023-12-07T03:51:28;3.28;;;2.38;;
51451;SDS011;37521;52.020;-1.740;2023-12-07T03:53:58;4.43;;;2.25;;
51451;SDS011;37521;52.020;-1.740;2023-12-07T03:56:27;3.13;;;2.03;;
51451;SDS011;37521;52.020;-1.740;2023-12-07T03:58:56;4.82;;;2.58;;
51451;SDS011;37521;52.020;-1.740;2023-12-07T04:01:26;5.82;;;2.28;;
51451;SDS011;37521;52.020;-1.740;2023-12-07T04:03:56;3.92;;;1.75;;
51451;SDS011;37521;52.020;-1.740;2023-12-07T04:06:29;3.17;;;2.38;;
51451;SDS011;37521;52.020;-1.740;2023-12-07T04:08:57;3.65;;;2.55;;
51451;SDS011;37521;52.020;-1.740;2023-12-07T04:11:26;2.90;;;2.55;;
51451;SDS011;37521;52.020;-1.740;2023-12-07T04:13:55;3.20;;;1.92;;
51451;SDS011;37521;52.020;-1.740;2023-12-07T04:16:23;4.55;;;2.75;;
51451;SDS011;37521;52.020;-1.740;2023-12-07T04:18:52;3.05;;;2.33;;
51451;SDS011;37521;52.020;-1.740;2023-12-07T04:21:21;4.10;;;2.47;;
51451;SDS011;37521;52.020;-1.740;2023-12-07T04:23:51;3.17;;;2.33;;
51451;SDS011;37521;52.020;-1.740;2023-12-07T04:26:20;5.38;;;2.60;;
51451;SDS011;37521;52.020;-1.740;2023-12-07T04:28:49;4.10;;;2.35;;
51451;SDS011;37521;52.020;-1.740;2023-12-07T04:31:17;4.10;;;2.35;;
51451;SDS011;37521;52.020;-1.740;2023-12-07T04:33:46;6.75;;;2.67;;
51451;SDS011;37521;52.020;-1.740;2023-12-07T04:36:15;3.75;;;2.05;;
51451;SDS011;37521;52.020;-1.740;2023-12-07T04:38:44;7.15;;;2.10;;
51451;SDS011;37521;52.020;-1.740;2023-12-07T04:41:14;3.78;;;2.78;;
51451;SDS011;37521;52.020;-1.740;2023-12-07T04:43:43;5.53;;;2.97;;
51451;SDS011;37521;52.020;-1.740;2023-12-07T04:46:11;5.03;;;2.65;;
51451;SDS011;37521;52.020;-1.740;2023-12-07T04:48:42;5.28;;;2.80;;
51451;SDS011;37521;52.020;-1.740;2023-12-07T04:51:11;3.15;;;2.63;;
51451;SDS011;37521;52.020;-1.740;2023-12-07T04:53:40;5.25;;;2.65;;
51451;SDS011;37521;52.020;-1.740;2023-12-07T04:56:08;5.93;;;2.70;;
51451;SDS011;37521;52.020;-1.740;2023-12-07T04:58:39;5.30;;;2.38;;
51451;SDS011;37521;52.020;-1.740;2023-12-07T05:01:07;5.03;;;2.67;;
51451;SDS011;37521;52.020;-1.740;2023-12-07T05:03:36;4.70;;;2.45;;
51451;SDS011;37521;52.020;-1.740;2023-12-07T05:06:05;5.05;;;2.50;;
51451;SDS011;37521;52.020;-1.740;2023-12-07T05:08:34;4.50;;;2.72;;
51451;SDS011;37521;52.020;-1.740;2023-12-07T05:11:03;5.30;;;3.08;;
51451;SDS011;37521;52.020;-1.740;2023-12-07T05:13:32;4.32;;;2.70;;
51451;SDS011;37521;52.020;-1.740;2023-12-07T05:16:04;5.05;;;2.53;;
51451;SDS011;37521;52.020;-1.740;2023-12-07T05:18:33;4.15;;;2.72;;
51451;SDS011;37521;52.020;-1.740;2023-12-07T05:21:02;3.80;;;2.25;;
51451;SDS011;37521;52.020;-1.740;2023-12-07T05:23:31;5.18;;;2.42;;
51451;SDS011;37521;52.020;-1.740;2023-12-07T05:26:04;5.47;;;2.58;;
51451;SDS011;37521;52.020;-1.740;2023-12-07T05:28:35;5.15;;;2.80;;
51451;SDS011;37521;52.020;-1.740;2023-12-07T05:31:06;4.78;;;2.40;;
51451;SDS011;37521;52.020;-1.740;2023-12-07T05:33:35;5.05;;;3.03;;
51451;SDS011;37521;52.020;-1.740;2023-12-07T05:36:04;2.67;;;2.17;;
51451;SDS011;37521;52.020;-1.740;2023-12-07T05:38:33;6.05;;;3.00;;
51451;SDS011;37521;52.020;-1.740;2023-12-07T05:41:02;5.03;;;2.97;;
51451;SDS011;37521;52.020;-1.740;2023-12-07T05:43:31;5.88;;;2.83;;
51451;SDS011;37521;52.020;-1.740;2023-12-07T05:46:00;6.43;;;2.72;;
51451;SDS011;37521;52.020;-1.740;2023-12-07T05:48:31;5.53;;;3.40;;
51451;SDS011;37521;52.020;-1.740;2023-12-07T05:51:01;3.60;;;2.15;;
51451;SDS011;37521;52.020;-1.740;2023-12-07T05:53:30;4.18;;;2.53;;
51451;SDS011;37521;52.020;-1.740;2023-12-07T05:55:59;6.50;;;3.22;;
51451;SDS011;37521;52.020;-1.740;2023-12-07T05:58:30;7.60;;;2.70;;
51451;SDS011;37521;52.020;-1.740;2023-12-07T06:01:00;3.10;;;2.05;;
51451;SDS011;37521;52.020;-1.740;2023-12-07T06:03:30;4.72;;;2.45;;
51451;SDS011;37521;52.020;-1.740;2023-12-07T06:05:59;4.93;;;3.08;;
51451;SDS011;37521;52.020;-1.740;2023-12-07T06:08:28;3.50;;;2.50;;
51451;SDS011;37521;52.020;-1.740;2023-12-07T06:10:57;5.03;;;2.20;;
51451;SDS011;37521;52.020;-1.740;2023-12-07T06:13:25;3.40;;;2.00;;
51451;SDS011;37521;52.020;-1.740;2023-12-07T06:15:54;10.23;;;3.55;;
51451;SDS011;37521;52.020;-1.740;2023-12-07T06:18:23;7.13;;;3.38;;
51451;SDS011;37521;52.020;-1.740;2023-12-07T06:20:53;4.85;;;2.70;;
51451;SDS011;37521;52.020;-1.740;2023-12-07T06:23:22;5.55;;;2.80;;
51451;SDS011;37521;52.020;-1.740;2023-12-07T06:25:50;4.75;;;2.45;;
51451;SDS011;37521;52.020;-1.740;2023-12-07T06:28:19;4.15;;;2.65;;
51451;SDS011;37521;52.020;-1.740;2023-12-07T06:30:48;6.22;;;3.17;;
51451;SDS011;37521;52.020;-1.740;2023-12-07T06:33:16;5.90;;;3.00;;
51451;SDS011;37521;52.020;-1.740;2023-12-07T06:35:45;4.97;;;2.53;;
51451;SDS011;37521;52.020;-1.740;2023-12-07T06:38:16;2.85;;;1.65;;
51451;SDS011;37521;52.020;-1.740;2023-12-07T06:40:48;9.57;;;3.03;;
51451;SDS011;37521;52.020;-1.740;2023-12-07T06:43:17;3.47;;;2.80;;
51451;SDS011;37521;52.020;-1.740;2023-12-07T06:45:46;5.68;;;2.58;;
51451;SDS011;37521;52.020;-1.740;2023-12-07T06:48:14;8.68;;;2.42;;
51451;SDS011;37521;52.020;-1.740;2023-12-07T06:50:43;3.92;;;2.50;;
51451;SDS011;37521;52.020;-1.740;2023-12-07T06:53:12;4.97;;;2.38;;
51451;SDS011;37521;52.020;-1.740;2023-12-07T06:55:44;3.63;;;2.15;;
51451;SDS011;37521;52.020;-1.740;2023-12-07T06:58:13;3.55;;;1.88;;
51451;SDS011;37521;52.020;-1.740;2023-12-07T07:00:41;4.85;;;2.58;;
51451;SDS011;37521;52.020;-1.740;2023-12-07T07:03:10;2.75;;;2.20;;
51451;SDS011;37521;52.020;-1.740;2023-12-07T07:05:39;4.10;;;2.17;;
51451;SDS011;37521;52.020;-1.740;2023-12-07T07:08:07;2.67;;;1.42;;
51451;SDS011;37521;52.020;-1.740;2023-12-07T07:10:36;3.25;;;1.98;;
51451;SDS011;37521;52.020;-1.740;2023-12-07T07:13:06;4.88;;;2.60;;
51451;SDS011;37521;52.020;-1.740;2023-12-07T07:15:35;6.82;;;2.45;;
51451;SDS011;37521;52.020;-1.740;2023-12-07T07:18:04;6.78;;;2.83;;
51451;SDS011;37521;52.020;-1.740;2023-12-07T07:20:33;5.72;;;2.38;;
51451;SDS011;37521;52.020;-1.740;2023-12-07T07:23:02;3.22;;;1.65;;
51451;SDS011;37521;52.020;-1.740;2023-12-07T07:25:31;2.33;;;1.98;;
51451;SDS011;37521;52.020;-1.740;2023-12-07T07:28:00;5.97;;;2.53;;
51451;SDS011;37521;52.020;-1.740;2023-12-07T07:30:31;3.97;;;2.50;;
51451;SDS011;37521;52.020;-1.740;2023-12-07T07:33:00;2.88;;;1.40;;
51451;SDS011;37521;52.020;-1.740;2023-12-07T07:35:29;3.90;;;1.10;;
51451;SDS011;37521;52.020;-1.740;2023-12-07T07:37:58;2.25;;;2.05;;
51451;SDS011;37521;52.020;-1.740;2023-12-07T07:40:26;1.92;;;1.83;;
51451;SDS011;37521;52.020;-1.740;2023-12-07T07:42:55;2.33;;;1.83;;
51451;SDS011;37521;52.020;-1.740;2023-12-07T07:45:24;4.57;;;2.00;;
51451;SDS011;37521;52.020;-1.740;2023-12-07T07:47:54;2.25;;;1.45;;
51451;SDS011;37521;52.020;-1.740;2023-12-07T07:50:23;5.47;;;1.67;;
51451;SDS011;37521;52.020;-1.740;2023-12-07T07:52:52;2.80;;;1.73;;
51451;SDS011;37521;52.020;-1.740;2023-12-07T07:55:20;5.40;;;2.03;;
51451;SDS011;37521;52.020;-1.740;2023-12-07T07:57:49;2.40;;;1.60;;
51451;SDS011;37521;52.020;-1.740;2023-12-07T08:00:18;4.05;;;2.15;;
51451;SDS011;37521;52.020;-1.740;2023-12-07T08:02:48;3.17;;;2.38;;
51451;SDS011;37521;52.020;-1.740;2023-12-07T08:05:18;2.70;;;1.73;;
51451;SDS011;37521;52.020;-1.740;2023-12-07T08:07:47;3.30;;;1.83;;
51451;SDS011;37521;52.020;-1.740;2023-12-07T08:10:15;2.00;;;1.33;;
51451;SDS011;37521;52.020;-1.740;2023-12-07T08:12:44;5.35;;;2.15;;
51451;SDS011;37521;52.020;-1.740;2023-12-07T08:15:13;2.58;;;1.75;;
51451;SDS011;37521;52.020;-1.740;2023-12-07T08:17:42;2.47;;;1.52;;
51451;SDS011;37521;52.020;-1.740;2023-12-07T08:20:11;2.03;;;1.35;;
51451;SDS011;37521;52.020;-1.740;2023-12-07T08:22:43;6.50;;;1.60;;
51451;SDS011;37521;52.020;-1.740;2023-12-07T08:25:12;2.28;;;1.65;;
51451;SDS011;37521;52.020;-1.740;2023-12-07T08:27:40;3.15;;;1.77;;
51451;SDS011;37521;52.020;-1.740;2023-12-07T08:30:11;2.17;;;1.80;;
51451;SDS011;37521;52.020;-1.740;2023-12-07T08:32:40;1.60;;;1.23;;
51451;SDS011;37521;52.020;-1.740;2023-12-07T08:35:09;1.98;;;1.70;;
51451;SDS011;37521;52.020;-1.740;2023-12-07T08:37:37;1.80;;;1.63;;
51451;SDS011;37521;52.020;-1.740;2023-12-07T08:40:09;2.63;;;1.42;;
51451;SDS011;37521;52.020;-1.740;2023-12-07T08:42:43;2.05;;;1.15;;
51451;SDS011;37521;52.020;-1.740;2023-12-07T08:45:16;1.40;;;1.30;;
51451;SDS011;37521;52.020;-1.740;2023-12-07T08:47:45;1.60;;;1.40;;
51451;SDS011;37521;52.020;-1.740;2023-12-07T08:50:14;2.13;;;1.52;;
51451;SDS011;37521;52.020;-1.740;2023-12-07T08:52:43;1.67;;;1.27;;
51451;SDS011;37521;52.020;-1.740;2023-12-07T08:55:23;1.75;;;1.45;;
51451;SDS011;37521;52.020;-1.740;2023-12-07T08:57:52;1.63;;;1.35;;
51451;SDS011;37521;52.020;-1.740;2023-12-07T09:00:21;3.20;;;1.90;;
51451;SDS011;37521;52.020;-1.740;2023-12-07T09:02:52;1.27;;;1.08;;
51451;SDS011;37521;52.020;-1.740;2023-12-07T09:05:21;2.20;;;1.30;;
51451;SDS011;37521;52.020;-1.740;2023-12-07T09:07:49;1.58;;;1.17;;
51451;SDS011;37521;52.020;-1.740;2023-12-07T09:10:19;2.70;;;1.35;;
51451;SDS011;37521;52.020;-1.740;2023-12-07T09:12:50;2.47;;;1.83;;
51451;SDS011;37521;52.020;-1.740;2023-12-07T09:15:18;1.27;;;1.17;;
51451;SDS011;37521;52.020;-1.740;2023-12-07T09:17:48;1.15;;;1.00;;
51451;SDS011;37521;52.020;-1.740;2023-12-07T09:20:17;0.90;;;0.90;;
51451;SDS011;37521;52.020;-1.740;2023-12-07T09:22:46;0.80;;;0.80;;
51451;SDS011;37521;52.020;-1.740;2023-12-07T09:25:16;1.70;;;1.17;;
51451;SDS011;37521;52.020;-1.740;2023-12-07T09:27:44;0.93;;;0.90;;
51451;SDS011;37521;52.020;-1.740;2023-12-07T09:30:16;1.17;;;1.13;;
51451;SDS011;37521;52.020;-1.740;2023-12-07T09:32:45;2.65;;;0.93;;
51451;SDS011;37521;52.020;-1.740;2023-12-07T09:35:13;1.70;;;1.23;;
51451;SDS011;37521;52.020;-1.740;2023-12-07T09:37:47;2.03;;;0.90;;
51451;SDS011;37521;52.020;-1.740;2023-12-07T09:40:17;2.28;;;1.45;;
51451;SDS011;37521;52.020;-1.740;2023-12-07T09:42:48;2.00;;;1.10;;
51451;SDS011;37521;52.020;-1.740;2023-12-07T09:45:19;2.10;;;1.80;;
51451;SDS011;37521;52.020;-1.740;2023-12-07T09:50:20;5.70;;;2.08;;
51451;SDS011;37521;52.020;-1.740;2023-12-07T09:52:51;2.35;;;1.75;;
51451;SDS011;37521;52.020;-1.740;2023-12-07T09:55:33;4.35;;;1.88;;
51451;SDS011;37521;52.020;-1.740;2023-12-07T09:58:04;2.85;;;1.48;;
51451;SDS011;37521;52.020;-1.740;2023-12-07T10:00:36;2.92;;;2.15;;
51451;SDS011;37521;52.020;-1.740;2023-12-07T10:03:06;2.40;;;1.48;;
51451;SDS011;37521;52.020;-1.740;2023-12-07T10:05:56;1.70;;;1.13;;
51451;SDS011;37521;52.020;-1.740;2023-12-07T10:08:27;2.40;;;1.42;;
51451;SDS011;37521;52.020;-1.740;2023-12-07T10:11:03;5.03;;;1.67;;
51451;SDS011;37521;52.020;-1.740;2023-12-07T10:13:34;2.00;;;1.85;;
51451;SDS011;37521;52.020;-1.740;2023-12-07T10:16:07;1.52;;;1.17;;
51451;SDS011;37521;52.020;-1.740;2023-12-07T10:18:37;3.83;;;1.85;;
51451;SDS011;37521;52.020;-1.740;2023-12-07T10:21:10;3.13;;;1.55;;
51451;SDS011;37521;52.020;-1.740;2023-12-07T10:23:41;3.55;;;1.77;;
51451;SDS011;37521;52.020;-1.740;2023-12-07T10:26:16;2.92;;;1.27;;
51451;SDS011;37521;52.020;-1.740;2023-12-07T10:28:52;1.52;;;1.40;;
51451;SDS011;37521;52.020;-1.740;2023-12-07T10:31:31;4.03;;;1.85;;
51451;SDS011;37521;52.020;-1.740;2023-12-07T10:34:04;6.38;;;1.30;;
51451;SDS011;37521;52.020;-1.740;2023-12-07T10:36:33;5.07;;;2.10;;
51451;SDS011;37521;52.020;-1.740;2023-12-07T10:39:02;4.18;;;1.95;;
51451;SDS011;37521;52.020;-1.740;2023-12-07T10:41:41;2.78;;;1.90;;
51451;SDS011;37521;52.020;-1.740;2023-12-07T10:44:11;4.85;;;2.38;;
51451;SDS011;37521;52.020;-1.740;2023-12-07T10:46:43;5.40;;;1.63;;
51451;SDS011;37521;52.020;-1.740;2023-12-07T10:49:15;3.22;;;1.27;;
51451;SDS011;37521;52.020;-1.740;2023-12-07T10:52:00;3.13;;;1.15;;
51451;SDS011;37521;52.020;-1.740;2023-12-07T10:54:47;5.47;;;2.10;;
51451;SDS011;37521;52.020;-1.740;2023-12-07T10:57:23;1.98;;;1.48;;
51451;SDS011;37521;52.020;-1.740;2023-12-07T10:59:53;1.98;;;1.17;;
51451;SDS011;37521;52.020;-1.740;2023-12-07T11:02:26;5.18;;;1.70;;
51451;SDS011;37521;52.020;-1.740;2023-12-07T11:04:56;4.53;;;0.88;;
51451;SDS011;37521;52.020;-1.740;2023-12-07T11:07:27;1.80;;;1.27;;
51451;SDS011;37521;52.020;-1.740;2023-12-07T11:10:11;3.42;;;1.27;;
51451;SDS011;37521;52.020;-1.740;2023-12-07T11:12:45;2.65;;;1.50;;
51451;SDS011;37521;52.020;-1.740;2023-12-07T11:15:19;4.25;;;1.33;;
51451;SDS011;37521;52.020;-1.740;2023-12-07T11:17:53;1.55;;;0.88;;
51451;SDS011;37521;52.020;-1.740;2023-12-07T11:20:31;1.70;;;1.42;;
51451;SDS011;37521;52.020;-1.740;2023-12-07T11:23:07;3.45;;;1.52;;
51451;SDS011;37521;52.020;-1.740;2023-12-07T11:25:36;0.80;;;0.73;;
51451;SDS011;37521;52.020;-1.740;2023-12-07T11:28:06;3.13;;;1.58;;
51451;SDS011;37521;52.020;-1.740;2023-12-07T11:30:36;1.08;;;0.80;;
51451;SDS011;37521;52.020;-1.740;2023-12-07T11:33:08;3.83;;;1.40;;
51451;SDS011;37521;52.020;-1.740;2023-12-07T11:38:33;3.70;;;1.15;;
51451;SDS011;37521;52.020;-1.740;2023-12-07T11:41:02;1.10;;;1.00;;
51451;SDS011;37521;52.020;-1.740;2023-12-07T11:43:40;3.55;;;1.10;;
51451;SDS011;37521;52.020;-1.740;2023-12-07T11:46:13;3.30;;;1.33;;
51451;SDS011;37521;52.020;-1.740;2023-12-07T11:48:47;1.42;;;0.80;;
51451;SDS011;37521;52.020;-1.740;2023-12-07T11:51:17;1.38;;;1.27;;
51451;SDS011;37521;52.020;-1.740;2023-12-07T11:53:46;7.57;;;2.10;;
51451;SDS011;37521;52.020;-1.740;2023-12-07T11:56:17;3.83;;;1.58;;
51451;SDS011;37521;52.020;-1.740;2023-12-07T11:58:48;5.65;;;1.33;;
51451;SDS011;37521;52.020;-1.740;2023-12-07T12:01:19;1.77;;;1.10;;
51451;SDS011;37521;52.020;-1.740;2023-12-07T12:03:50;4.43;;;1.50;;
51451;SDS011;37521;52.020;-1.740;2023-12-07T12:06:18;2.88;;;1.23;;
51451;SDS011;37521;52.020;-1.740;2023-12-07T12:08:48;1.33;;;1.25;;
51451;SDS011;37521;52.020;-1.740;2023-12-07T12:11:16;1.63;;;0.90;;
51451;SDS011;37521;52.020;-1.740;2023-12-07T12:13:45;1.38;;;1.17;;
51451;SDS011;37521;52.020;-1.740;2023-12-07T12:16:17;3.00;;;1.45;;
51451;SDS011;37521;52.020;-1.740;2023-12-07T12:18:46;1.27;;;1.13;;
51451;SDS011;37521;52.020;-1.740;2023-12-07T12:21:17;2.03;;;0.90;;
51451;SDS011;37521;52.020;-1.740;2023-12-07T12:23:47;0.70;;;0.70;;
51451;SDS011;37521;52.020;-1.740;2023-12-07T12:26:16;1.48;;;0.82;;
51451;SDS011;37521;52.020;-1.740;2023-12-07T12:28:46;1.70;;;1.00;;
51451;SDS011;37521;52.020;-1.740;2023-12-07T12:31:15;4.63;;;1.25;;
51451;SDS011;37521;52.020;-1.740;2023-12-07T12:33:44;1.75;;;1.17;;
51451;SDS011;37521;52.020;-1.740;2023-12-07T12:36:12;1.00;;;0.70;;
51451;SDS011;37521;52.020;-1.740;2023-12-07T12:38:43;1.17;;;1.08;;
51451;SDS011;37521;52.020;-1.740;2023-12-07T12:41:17;2.40;;;0.70;;
51451;SDS011;37521;52.020;-1.740;2023-12-07T12:43:46;2.38;;;1.10;;
51451;SDS011;37521;52.020;-1.740;2023-12-07T12:46:16;0.93;;;0.80;;
51451;SDS011;37521;52.020;-1.740;2023-12-07T12:48:54;2.15;;;1.02;;
51451;SDS011;37521;52.020;-1.740;2023-12-07T12:51:24;1.05;;;1.00;;
51451;SDS011;37521;52.020;-1.740;2023-12-07T12:53:56;1.48;;;0.63;;
51451;SDS011;37521;52.020;-1.740;2023-12-07T12:56:27;3.45;;;1.20;;
51451;SDS011;37521;52.020;-1.740;2023-12-07T12:58:56;9.40;;;1.25;;
51451;SDS011;37521;52.020;-1.740;2023-12-07T13:01:31;3.55;;;1.27;;
51451;SDS011;37521;52.020;-1.740;2023-12-07T13:04:00;1.80;;;1.10;;
51451;SDS011;37521;52.020;-1.740;2023-12-07T13:06:29;1.08;;;1.02;;
51451;SDS011;37521;52.020;-1.740;2023-12-07T13:08:59;2.47;;;1.08;;
51451;SDS011;37521;52.020;-1.740;2023-12-07T13:11:28;5.35;;;1.10;;
51451;SDS011;37521;52.020;-1.740;2023-12-07T13:13:57;3.28;;;1.17;;
51451;SDS011;37521;52.020;-1.740;2023-12-07T13:16:25;1.63;;;1.02;;
51451;SDS011;37521;52.020;-1.740;2023-12-07T13:18:54;3.88;;;1.30;;
51451;SDS011;37521;52.020;-1.740;2023-12-07T13:21:23;1.02;;;0.80;;
51451;SDS011;37521;52.020;-1.740;2023-12-07T13:23:52;4.13;;;1.33;;
51451;SDS011;37521;52.020;-1.740;2023-12-07T13:26:23;1.10;;;0.73;;
51451;SDS011;37521;52.020;-1.740;2023-12-07T13:28:51;2.50;;;0.95;;
51451;SDS011;37521;52.020;-1.740;2023-12-07T13:31:20;2.17;;;0.98;;
51451;SDS011;37521;52.020;-1.740;2023-12-07T13:33:50;2.35;;;1.13;;
51451;SDS011;37521;52.020;-1.740;2023-12-07T13:38:54;1.35;;;1.25;;
51451;SDS011;37521;52.020;-1.740;2023-12-07T13:41:24;2.65;;;1.00;;
51451;SDS011;37521;52.020;-1.740;2023-12-07T13:43:53;2.95;;;1.33;;
51451;SDS011;37521;52.020;-1.740;2023-12-07T13:46:21;1.30;;;1.20;;
51451;SDS011;37521;52.020;-1.740;2023-12-07T13:48:51;1.38;;;0.98;;
51451;SDS011;37521;52.020;-1.740;2023-12-07T13:51:19;4.20;;;1.45;;
51451;SDS011;37521;52.020;-1.740;2023-12-07T13:53:49;1.20;;;1.02;;
51451;SDS011;37521;52.020;-1.740;2023-12-07T13:56:28;1.55;;;1.30;;
51451;SDS011;37521;52.020;-1.740;2023-12-07T13:58:57;1.23;;;1.08;;
51451;SDS011;37521;52.020;-1.740;2023-12-07T14:01:25;2.53;;;1.02;;
51451;SDS011;37521;52.020;-1.740;2023-12-07T14:03:54;3.42;;;1.15;;
51451;SDS011;37521;52.020;-1.740;2023-12-07T14:06:23;2.80;;;1.60;;
51451;SDS011;37521;52.020;-1.740;2023-12-07T14:08:55;1.83;;;1.10;;
51451;SDS011;37521;52.020;-1.740;2023-12-07T14:11:24;2.72;;;1.05;;
51451;SDS011;37521;52.020;-1.740;2023-12-07T14:13:54;3.42;;;1.02;;
51451;SDS011;37521;52.020;-1.740;2023-12-07T14:16:23;1.67;;;1.08;;
51451;SDS011;37521;52.020;-1.740;2023-12-07T14:19:12;1.75;;;0.50;;
51451;SDS011;37521;52.020;-1.740;2023-12-07T14:21:46;1.65;;;0.68;;
51451;SDS011;37521;52.020;-1.740;2023-12-07T14:24:22;1.20;;;0.60;;
51451;SDS011;37521;52.020;-1.740;2023-12-07T14:26:52;1.95;;;1.00;;
51451;SDS011;37521;52.020;-1.740;2023-12-07T14:29:23;1.67;;;1.20;;
51451;SDS011;37521;52.020;-1.740;2023-12-07T14:31:53;2.65;;;1.02;;
51451;SDS011;37521;52.020;-1.740;2023-12-07T14:34:23;0.65;;;0.50;;
51451;SDS011;37521;52.020;-1.740;2023-12-07T14:37:01;2.92;;;0.90;;
51451;SDS011;37521;52.020;-1.740;2023-12-07T14:39:33;3.25;;;0.70;;
51451;SDS011;37521;52.020;-1.740;2023-12-07T14:42:03;0.95;;;0.55;;
51451;SDS011;37521;52.020;-1.740;2023-12-07T14:44:34;2.40;;;0.80;;
51451;SDS011;37521;52.020;-1.740;2023-12-07T14:47:03;1.55;;;0.68;;
51451;SDS011;37521;52.020;-1.740;2023-12-07T14:49:32;1.77;;;0.95;;
51451;SDS011;37521;52.020;-1.740;2023-12-07T14:52:01;0.85;;;0.47;;
51451;SDS011;37521;52.020;-1.740;2023-12-07T14:54:30;0.47;;;0.40;;
51451;SDS011;37521;52.020;-1.740;2023-12-07T14:56:59;0.70;;;0.35;;
51451;SDS011;37521;52.020;-1.740;2023-12-07T14:59:30;0.55;;;0.45;;